createdAt,value
2019-01-09T00:00:58.032Z,989.16
2019-01-09T00:01:58.021Z,989.19
2019-01-09T00:02:58.010Z,989.15
2019-01-09T00:03:58.021Z,989.21
2019-01-09T00:04:57.989Z,989.20
2019-01-09T00:05:57.983Z,989.18
2019-01-09T00:06:57.969Z,989.14
2019-01-09T00:07:57.958Z,989.15
2019-01-09T00:08:57.948Z,989.09
2019-01-09T00:09:57.939Z,989.08
2019-01-09T00:10:57.932Z,989.05
2019-01-09T00:11:57.916Z,989.02
2019-01-09T00:12:57.908Z,989.04
2019-01-09T00:13:57.893Z,989.03
2019-01-09T00:14:57.886Z,989.05
2019-01-09T00:15:57.875Z,989.00
2019-01-09T00:16:57.867Z,989.01
2019-01-09T00:17:57.856Z,988.98
2019-01-09T00:18:57.845Z,989.01
2019-01-09T00:19:57.835Z,989.00
2019-01-09T00:20:57.822Z,988.98
2019-01-09T00:21:57.815Z,989.01
2019-01-09T00:22:57.805Z,988.97
2019-01-09T00:23:57.792Z,989.00
2019-01-09T00:24:57.785Z,988.99
2019-01-09T00:25:57.772Z,989.00
2019-01-09T00:26:57.765Z,988.98
2019-01-09T00:27:57.751Z,988.91
2019-01-09T00:28:57.802Z,988.97
2019-01-09T00:29:57.738Z,988.92
2019-01-09T00:30:57.719Z,989.09
2019-01-09T00:31:57.712Z,989.01
2019-01-09T00:32:57.700Z,989.03
2019-01-09T00:33:57.688Z,989.05
2019-01-09T00:34:57.680Z,989.05
2019-01-09T00:35:57.668Z,989.08
2019-01-09T00:36:57.655Z,989.06
2019-01-09T00:37:57.653Z,989.03
2019-01-09T00:38:57.636Z,989.04
2019-01-09T00:39:57.631Z,989.00
2019-01-09T00:40:57.690Z,989.12
2019-01-09T00:41:57.605Z,988.97
2019-01-09T00:42:57.595Z,989.01
2019-01-09T00:43:57.605Z,989.01
2019-01-09T00:44:57.574Z,989.05
2019-01-09T00:45:57.565Z,988.98
2019-01-09T00:46:57.552Z,988.98
2019-01-09T00:47:57.542Z,989.04
2019-01-09T00:48:57.534Z,988.97
2019-01-09T00:49:57.522Z,989.00
2019-01-09T00:50:57.511Z,989.02
2019-01-09T00:51:57.502Z,989.09
2019-01-09T00:52:57.492Z,989.00
2019-01-09T00:53:57.481Z,988.98
2019-01-09T00:54:57.471Z,988.99
2019-01-09T00:55:57.460Z,989.00
2019-01-09T00:56:57.450Z,989.02
2019-01-09T00:57:57.442Z,989.06
2019-01-09T00:58:57.431Z,989.01
2019-01-09T00:59:57.419Z,989.02
2019-01-09T01:00:57.403Z,989.02
2019-01-09T01:01:57.396Z,989.04
2019-01-09T01:02:57.395Z,989.08
2019-01-09T01:03:57.380Z,989.08
2019-01-09T01:04:57.369Z,989.09
2019-01-09T01:05:57.355Z,989.12
2019-01-09T01:06:57.350Z,989.02
2019-01-09T01:07:57.336Z,989.03
2019-01-09T01:08:57.323Z,989.05
2019-01-09T01:09:57.314Z,989.15
2019-01-09T01:10:57.300Z,989.24
2019-01-09T01:11:57.292Z,989.25
2019-01-09T01:12:57.282Z,989.29
2019-01-09T01:13:57.272Z,989.26
2019-01-09T01:14:57.260Z,989.32
2019-01-09T01:15:57.251Z,989.35
2019-01-09T01:16:57.246Z,989.34
2019-01-09T01:17:57.237Z,989.36
2019-01-09T01:18:57.219Z,989.39
2019-01-09T01:19:57.207Z,989.39
2019-01-09T01:20:57.199Z,989.38
2019-01-09T01:21:57.189Z,989.38
2019-01-09T01:22:57.178Z,989.30
2019-01-09T01:23:57.168Z,989.31
2019-01-09T01:24:57.156Z,989.29
2019-01-09T01:25:57.146Z,989.28
2019-01-09T01:26:57.135Z,989.32
2019-01-09T01:27:57.126Z,989.31
2019-01-09T01:28:57.116Z,989.30
2019-01-09T01:29:57.104Z,989.29
2019-01-09T01:30:57.097Z,989.31
2019-01-09T01:31:57.087Z,989.32
2019-01-09T01:32:57.074Z,989.33
2019-01-09T01:33:57.064Z,989.32
2019-01-09T01:34:57.049Z,989.36
2019-01-09T01:35:57.042Z,989.40
2019-01-09T01:36:57.031Z,989.44
2019-01-09T01:37:57.022Z,989.51
2019-01-09T01:38:57.008Z,989.52
2019-01-09T01:39:57.002Z,989.48
2019-01-09T01:40:56.989Z,989.51
2019-01-09T01:41:56.979Z,989.53
2019-01-09T01:42:56.969Z,989.48
2019-01-09T01:43:56.959Z,989.46
2019-01-09T01:44:56.947Z,989.45
2019-01-09T01:45:56.973Z,989.40
2019-01-09T01:46:56.975Z,989.46
2019-01-09T01:47:56.919Z,989.50
2019-01-09T01:48:56.907Z,989.49
2019-01-09T01:49:56.900Z,989.45
2019-01-09T01:50:56.884Z,989.46
2019-01-09T01:51:56.872Z,989.50
2019-01-09T01:52:56.952Z,989.53
2019-01-09T01:53:56.854Z,989.50
2019-01-09T01:54:56.842Z,989.49
2019-01-09T01:55:56.831Z,989.52
2019-01-09T01:56:56.825Z,989.47
2019-01-09T01:57:56.812Z,989.54
2019-01-09T01:58:56.803Z,989.49
2019-01-09T01:59:56.790Z,989.51
2019-01-09T02:00:56.781Z,989.54
2019-01-09T02:01:56.770Z,989.54
2019-01-09T02:02:56.762Z,989.50
2019-01-09T02:03:56.754Z,989.49
2019-01-09T02:04:56.739Z,989.51
2019-01-09T02:06:03.619Z,989.49
2019-01-09T02:06:56.720Z,989.43
2019-01-09T02:07:56.705Z,989.41
2019-01-09T02:08:56.700Z,989.40
2019-01-09T02:09:56.685Z,989.39
2019-01-09T02:10:56.676Z,989.36
2019-01-09T02:11:56.668Z,989.36
2019-01-09T02:12:56.657Z,989.36
2019-01-09T02:13:56.647Z,989.37
2019-01-09T02:14:56.636Z,989.38
2019-01-09T02:15:56.625Z,989.33
2019-01-09T02:16:56.611Z,989.34
2019-01-09T02:17:56.609Z,989.30
2019-01-09T02:18:56.592Z,989.28
2019-01-09T02:19:56.583Z,989.27
2019-01-09T02:20:56.573Z,989.23
2019-01-09T02:21:56.563Z,989.27
2019-01-09T02:22:56.549Z,989.26
2019-01-09T02:23:56.542Z,989.20
2019-01-09T02:24:56.528Z,989.21
2019-01-09T02:25:56.518Z,989.20
2019-01-09T02:26:56.511Z,989.17
2019-01-09T02:27:56.497Z,989.11
2019-01-09T02:28:56.492Z,989.08
2019-01-09T02:29:56.478Z,989.03
2019-01-09T02:30:56.467Z,989.03
2019-01-09T02:31:56.460Z,988.98
2019-01-09T02:32:56.449Z,988.92
2019-01-09T02:33:56.436Z,988.95
2019-01-09T02:34:56.419Z,988.88
2019-01-09T02:35:56.414Z,988.90
2019-01-09T02:36:56.404Z,988.84
2019-01-09T02:37:56.397Z,988.81
2019-01-09T02:38:56.382Z,988.79
2019-01-09T02:39:56.371Z,988.74
2019-01-09T02:40:56.364Z,988.78
2019-01-09T02:41:56.350Z,988.75
2019-01-09T02:42:56.340Z,988.68
2019-01-09T02:43:56.330Z,988.59
2019-01-09T02:44:56.328Z,988.52
2019-01-09T02:45:56.313Z,988.57
2019-01-09T02:46:56.299Z,988.46
2019-01-09T02:47:56.312Z,988.53
2019-01-09T02:48:56.283Z,988.53
2019-01-09T02:49:56.272Z,988.43
2019-01-09T02:50:56.254Z,988.38
2019-01-09T02:51:56.248Z,988.35
2019-01-09T02:52:56.236Z,988.40
2019-01-09T02:53:56.223Z,988.41
2019-01-09T02:54:56.217Z,988.37
2019-01-09T02:55:56.204Z,988.31
2019-01-09T02:56:56.197Z,988.38
2019-01-09T02:57:57.158Z,988.42
2019-01-09T02:58:56.173Z,988.46
2019-01-09T02:59:56.163Z,988.38
2019-01-09T03:00:56.154Z,988.48
2019-01-09T03:01:56.145Z,988.57
2019-01-09T03:02:56.132Z,988.55
2019-01-09T03:03:56.121Z,988.65
2019-01-09T03:04:56.119Z,988.77
2019-01-09T03:05:56.104Z,988.78
2019-01-09T03:06:56.093Z,988.89
2019-01-09T03:07:56.079Z,988.81
2019-01-09T03:08:56.070Z,988.99
2019-01-09T03:09:56.065Z,989.05
2019-01-09T03:10:56.047Z,989.17
2019-01-09T03:11:56.039Z,989.20
2019-01-09T03:12:56.025Z,989.31
2019-01-09T03:13:56.020Z,989.20
2019-01-09T03:14:56.014Z,989.21
2019-01-09T03:15:55.995Z,989.22
2019-01-09T03:16:55.984Z,989.20
2019-01-09T03:17:55.975Z,989.25
2019-01-09T03:18:55.968Z,989.20
2019-01-09T03:19:55.951Z,989.20
2019-01-09T03:20:55.942Z,989.12
2019-01-09T03:21:55.949Z,989.11
2019-01-09T03:22:55.924Z,989.08
2019-01-09T03:23:55.928Z,989.06
2019-01-09T03:24:55.901Z,989.08
2019-01-09T03:25:55.928Z,989.07
2019-01-09T03:26:55.882Z,989.09
2019-01-09T03:27:55.870Z,989.04
2019-01-09T03:28:55.860Z,989.03
2019-01-09T03:29:55.856Z,989.02
2019-01-09T03:30:55.835Z,989.05
2019-01-09T03:31:55.825Z,989.00
2019-01-09T03:32:55.824Z,989.05
2019-01-09T03:33:55.804Z,989.06
2019-01-09T03:34:55.798Z,989.05
2019-01-09T03:35:55.784Z,988.97
2019-01-09T03:36:55.773Z,988.99
2019-01-09T03:37:55.905Z,988.99
2019-01-09T03:38:55.754Z,988.93
2019-01-09T03:39:55.740Z,988.90
2019-01-09T03:40:55.732Z,988.92
2019-01-09T03:41:55.724Z,988.87
2019-01-09T03:42:55.709Z,988.86
2019-01-09T03:43:55.699Z,988.90
2019-01-09T03:44:55.696Z,988.95
2019-01-09T03:45:55.680Z,988.92
2019-01-09T03:46:55.697Z,988.91
2019-01-09T03:47:55.657Z,988.89
2019-01-09T03:48:55.677Z,988.86
2019-01-09T03:49:55.638Z,988.85
2019-01-09T03:50:55.629Z,988.84
2019-01-09T03:51:55.616Z,988.79
2019-01-09T03:52:55.603Z,988.83
2019-01-09T03:53:55.595Z,988.79
2019-01-09T03:54:55.583Z,988.79
2019-01-09T03:55:55.605Z,988.79
2019-01-09T03:56:55.565Z,988.70
2019-01-09T03:57:55.553Z,988.68
2019-01-09T03:58:55.542Z,988.72
2019-01-09T03:59:55.535Z,988.70
2019-01-09T04:00:55.521Z,988.67
2019-01-09T04:01:55.511Z,988.68
2019-01-09T04:02:55.501Z,988.64
2019-01-09T04:03:55.489Z,988.69
2019-01-09T04:04:55.482Z,988.67
2019-01-09T04:05:55.471Z,988.70
2019-01-09T04:06:55.491Z,988.73
2019-01-09T04:07:55.449Z,988.67
2019-01-09T04:08:55.442Z,988.74
2019-01-09T04:09:55.427Z,988.72
2019-01-09T04:10:55.414Z,988.72
2019-01-09T04:11:55.404Z,988.75
2019-01-09T04:12:55.393Z,988.79
2019-01-09T04:13:55.384Z,988.85
2019-01-09T04:14:55.373Z,988.85
2019-01-09T04:15:55.360Z,988.89
2019-01-09T04:16:55.356Z,988.84
2019-01-09T04:17:55.345Z,988.84
2019-01-09T04:18:55.331Z,988.86
2019-01-09T04:19:55.323Z,988.89
2019-01-09T04:20:55.309Z,988.94
2019-01-09T04:21:55.300Z,988.94
2019-01-09T04:22:55.289Z,988.93
2019-01-09T04:23:55.279Z,988.89
2019-01-09T04:24:55.270Z,988.91
2019-01-09T04:25:55.259Z,988.92
2019-01-09T04:26:55.249Z,988.84
2019-01-09T04:27:55.238Z,988.85
2019-01-09T04:28:55.243Z,988.84
2019-01-09T04:29:55.216Z,988.88
2019-01-09T04:30:55.204Z,988.80
2019-01-09T04:31:55.196Z,988.82
2019-01-09T04:32:55.184Z,988.79
2019-01-09T04:33:55.175Z,988.80
2019-01-09T04:34:55.164Z,988.81
2019-01-09T04:35:55.151Z,988.82
2019-01-09T04:36:55.140Z,988.80
2019-01-09T04:37:55.134Z,988.83
2019-01-09T04:38:55.122Z,988.83
2019-01-09T04:39:55.112Z,988.83
2019-01-09T04:40:55.101Z,988.87
2019-01-09T04:41:55.090Z,988.85
2019-01-09T04:42:55.079Z,988.82
2019-01-09T04:43:55.069Z,988.85
2019-01-09T04:44:55.060Z,988.82
2019-01-09T04:45:55.047Z,988.85
2019-01-09T04:46:55.046Z,988.86
2019-01-09T04:47:55.027Z,988.85
2019-01-09T04:48:55.017Z,988.86
2019-01-09T04:49:55.007Z,988.80
2019-01-09T04:50:54.997Z,988.80
2019-01-09T04:51:54.987Z,988.81
2019-01-09T04:52:54.978Z,988.88
2019-01-09T04:53:54.965Z,988.83
2019-01-09T04:54:54.956Z,988.85
2019-01-09T04:55:54.950Z,988.85
2019-01-09T04:56:54.939Z,988.85
2019-01-09T04:57:54.924Z,988.87
2019-01-09T04:58:54.911Z,988.90
2019-01-09T04:59:54.902Z,988.85
2019-01-09T05:00:54.891Z,988.81
2019-01-09T05:01:54.875Z,988.82
2019-01-09T05:02:54.877Z,988.85
2019-01-09T05:03:54.855Z,988.79
2019-01-09T05:04:54.848Z,988.77
2019-01-09T05:05:54.843Z,988.72
2019-01-09T05:07:00.472Z,988.76
2019-01-09T05:07:54.825Z,988.73
2019-01-09T05:08:54.803Z,988.75
2019-01-09T05:09:54.802Z,988.74
2019-01-09T05:10:54.776Z,988.76
2019-01-09T05:11:54.774Z,988.75
2019-01-09T05:12:54.774Z,988.75
2019-01-09T05:13:54.750Z,988.80
2019-01-09T05:14:54.731Z,988.77
2019-01-09T05:15:54.725Z,988.76
2019-01-09T05:16:54.724Z,988.72
2019-01-09T05:17:54.723Z,988.77
2019-01-09T05:18:54.704Z,988.75
2019-01-09T05:19:54.677Z,988.74
2019-01-09T05:20:54.676Z,988.73
2019-01-09T05:21:54.668Z,988.69
2019-01-09T05:22:54.658Z,988.67
2019-01-09T05:23:54.659Z,988.73
2019-01-09T05:24:54.628Z,988.67
2019-01-09T05:25:54.616Z,988.67
2019-01-09T05:26:54.606Z,988.70
2019-01-09T05:27:54.594Z,988.68
2019-01-09T05:28:54.586Z,988.66
2019-01-09T05:29:54.571Z,988.65
2019-01-09T05:30:54.567Z,988.61
2019-01-09T05:31:54.549Z,988.59
2019-01-09T05:32:54.538Z,988.65
2019-01-09T05:33:54.529Z,988.66
2019-01-09T05:34:54.516Z,988.70
2019-01-09T05:35:54.506Z,988.67
2019-01-09T05:36:54.491Z,988.65
2019-01-09T05:37:54.488Z,988.67
2019-01-09T05:38:54.475Z,988.64
2019-01-09T05:39:54.462Z,988.61
2019-01-09T05:40:54.452Z,988.62
2019-01-09T05:41:54.441Z,988.61
2019-01-09T05:42:54.431Z,988.66
2019-01-09T05:43:54.421Z,988.66
2019-01-09T05:44:54.411Z,988.62
2019-01-09T05:45:54.397Z,988.65
2019-01-09T05:46:54.387Z,988.58
2019-01-09T05:47:54.378Z,988.58
2019-01-09T05:48:54.364Z,988.59
2019-01-09T05:49:54.355Z,988.68
2019-01-09T05:50:54.344Z,988.66
2019-01-09T05:51:54.332Z,988.62
2019-01-09T05:52:54.322Z,988.61
2019-01-09T05:53:54.317Z,988.68
2019-01-09T05:54:54.301Z,988.63
2019-01-09T05:55:54.293Z,988.65
2019-01-09T05:56:54.279Z,988.62
2019-01-09T05:57:54.272Z,988.62
2019-01-09T05:58:54.256Z,988.64
2019-01-09T05:59:54.250Z,988.63
2019-01-09T06:00:54.240Z,988.61
2019-01-09T06:01:54.227Z,988.63
2019-01-09T06:02:54.215Z,988.63
2019-01-09T06:03:54.205Z,988.65
2019-01-09T06:04:54.197Z,988.65
2019-01-09T06:05:54.183Z,988.62
2019-01-09T06:06:54.181Z,988.62
2019-01-09T06:07:54.165Z,988.59
2019-01-09T06:08:54.152Z,988.63
2019-01-09T06:09:54.221Z,988.59
2019-01-09T06:10:54.129Z,988.65
2019-01-09T06:11:54.231Z,988.60
2019-01-09T06:12:54.109Z,988.60
2019-01-09T06:13:54.103Z,988.60
2019-01-09T06:14:54.093Z,988.63
2019-01-09T06:15:54.080Z,988.59
2019-01-09T06:16:54.070Z,988.59
2019-01-09T06:17:54.060Z,988.62
2019-01-09T06:18:54.046Z,988.61
2019-01-09T06:19:54.035Z,988.60
2019-01-09T06:20:54.029Z,988.64
2019-01-09T06:21:54.014Z,988.66
2019-01-09T06:22:54.006Z,988.67
2019-01-09T06:23:53.997Z,988.69
2019-01-09T06:24:53.985Z,988.70
2019-01-09T06:25:53.981Z,988.66
2019-01-09T06:26:53.959Z,988.64
2019-01-09T06:27:53.950Z,988.65
2019-01-09T06:28:53.939Z,988.66
2019-01-09T06:29:53.935Z,988.65
2019-01-09T06:30:53.920Z,988.70
2019-01-09T06:31:53.907Z,988.71
2019-01-09T06:32:53.899Z,988.71
2019-01-09T06:33:53.892Z,988.69
2019-01-09T06:34:53.872Z,988.69
2019-01-09T06:35:53.864Z,988.69
2019-01-09T06:36:53.861Z,988.67
2019-01-09T06:37:53.845Z,988.69
2019-01-09T06:38:53.834Z,988.67
2019-01-09T06:39:53.822Z,988.69
2019-01-09T06:40:53.817Z,988.69
2019-01-09T06:41:53.805Z,988.68
2019-01-09T06:42:53.789Z,988.67
2019-01-09T06:43:53.784Z,988.68
2019-01-09T06:44:53.767Z,988.66
2019-01-09T06:45:53.759Z,988.67
2019-01-09T06:46:53.748Z,988.70
2019-01-09T06:47:53.737Z,988.66
2019-01-09T06:48:53.730Z,988.71
2019-01-09T06:49:53.722Z,988.68
2019-01-09T06:50:53.707Z,988.71
2019-01-09T06:51:53.695Z,988.73
2019-01-09T06:52:53.685Z,988.70
2019-01-09T06:53:53.688Z,988.70
2019-01-09T06:54:53.662Z,988.64
2019-01-09T06:55:53.678Z,988.72
2019-01-09T06:56:53.641Z,988.72
2019-01-09T06:57:53.632Z,988.76
2019-01-09T06:58:53.622Z,988.77
2019-01-09T06:59:53.610Z,988.75
2019-01-09T07:00:53.602Z,988.75
2019-01-09T07:01:53.590Z,988.76
2019-01-09T07:02:53.582Z,988.77
2019-01-09T07:03:53.570Z,988.81
2019-01-09T07:04:53.561Z,988.89
2019-01-09T07:05:53.548Z,988.90
2019-01-09T07:06:53.537Z,989.01
2019-01-09T07:07:53.525Z,989.06
2019-01-09T07:08:53.516Z,989.12
2019-01-09T07:09:53.504Z,989.13
2019-01-09T07:10:53.496Z,989.26
2019-01-09T07:11:53.484Z,989.24
2019-01-09T07:12:53.475Z,989.30
2019-01-09T07:13:53.463Z,989.23
2019-01-09T07:14:53.450Z,989.26
2019-01-09T07:15:53.441Z,989.27
2019-01-09T07:16:53.429Z,989.23
2019-01-09T07:17:53.419Z,989.23
2019-01-09T07:18:53.415Z,989.27
2019-01-09T07:19:53.398Z,989.27
2019-01-09T07:20:53.389Z,989.26
2019-01-09T07:21:53.383Z,989.29
2019-01-09T07:22:53.365Z,989.27
2019-01-09T07:23:53.355Z,989.29
2019-01-09T07:24:53.345Z,989.32
2019-01-09T07:25:53.337Z,989.29
2019-01-09T07:26:53.323Z,989.27
2019-01-09T07:27:53.314Z,989.24
2019-01-09T07:28:53.307Z,989.28
2019-01-09T07:29:53.294Z,989.32
2019-01-09T07:30:53.288Z,989.32
2019-01-09T07:31:53.272Z,989.27
2019-01-09T07:32:53.267Z,989.27
2019-01-09T07:33:53.253Z,989.28
2019-01-09T07:34:53.249Z,989.33
2019-01-09T07:35:53.230Z,989.34
2019-01-09T07:36:53.221Z,989.27
2019-01-09T07:37:53.210Z,989.31
2019-01-09T07:38:53.200Z,989.29
2019-01-09T07:39:53.189Z,989.32
2019-01-09T07:40:53.177Z,989.34
2019-01-09T07:41:53.174Z,989.33
2019-01-09T07:42:53.155Z,989.34
2019-01-09T07:43:53.143Z,989.33
2019-01-09T07:44:53.143Z,989.36
2019-01-09T07:45:53.124Z,989.37
2019-01-09T07:46:53.114Z,989.41
2019-01-09T07:47:53.103Z,989.34
2019-01-09T07:48:53.095Z,989.35
2019-01-09T07:49:53.078Z,989.35
2019-01-09T07:50:53.075Z,989.37
2019-01-09T07:51:53.062Z,989.37
2019-01-09T07:52:53.049Z,989.36
2019-01-09T07:53:55.440Z,989.41
2019-01-09T07:54:53.029Z,989.33
2019-01-09T07:55:53.019Z,989.43
2019-01-09T07:56:53.012Z,989.42
2019-01-09T07:57:52.997Z,989.47
2019-01-09T07:58:52.986Z,989.45
2019-01-09T07:59:52.980Z,989.47
2019-01-09T08:00:52.972Z,989.48
2019-01-09T08:01:52.955Z,989.50
2019-01-09T08:02:52.944Z,989.47
2019-01-09T08:03:52.933Z,989.53
2019-01-09T08:04:52.923Z,989.45
2019-01-09T08:05:52.915Z,989.48
2019-01-09T08:06:52.905Z,989.47
2019-01-09T08:07:54.192Z,989.44
2019-01-09T08:08:52.881Z,989.43
2019-01-09T08:09:52.875Z,989.46
2019-01-09T08:10:52.861Z,989.54
2019-01-09T08:11:52.852Z,989.52
2019-01-09T08:12:52.843Z,989.52
2019-01-09T08:13:52.832Z,989.47
2019-01-09T08:14:52.821Z,989.50
2019-01-09T08:15:52.810Z,989.50
2019-01-09T08:16:52.797Z,989.60
2019-01-09T08:17:52.786Z,989.57
2019-01-09T08:18:52.779Z,989.55
2019-01-09T08:19:52.763Z,989.57
2019-01-09T08:20:52.756Z,989.61
2019-01-09T08:21:52.745Z,989.57
2019-01-09T08:22:52.733Z,989.60
2019-01-09T08:23:52.724Z,989.62
2019-01-09T08:24:52.717Z,989.58
2019-01-09T08:25:52.704Z,989.58
2019-01-09T08:26:52.714Z,989.55
2019-01-09T08:27:52.680Z,989.54
2019-01-09T08:28:52.671Z,989.56
2019-01-09T08:29:52.659Z,989.51
2019-01-09T08:30:52.650Z,989.54
2019-01-09T08:31:52.638Z,989.46
2019-01-09T08:32:52.628Z,989.47
2019-01-09T08:33:52.622Z,989.55
2019-01-09T08:34:52.607Z,989.54
2019-01-09T08:35:52.599Z,989.56
2019-01-09T08:36:52.585Z,989.58
2019-01-09T08:37:52.582Z,989.60
2019-01-09T08:38:52.567Z,989.54
2019-01-09T08:39:52.556Z,989.51
2019-01-09T08:40:52.545Z,989.55
2019-01-09T08:41:52.531Z,989.58
2019-01-09T08:42:52.526Z,989.54
2019-01-09T08:43:52.512Z,989.54
2019-01-09T08:44:52.502Z,989.56
2019-01-09T08:45:52.490Z,989.60
2019-01-09T08:46:52.481Z,989.61
2019-01-09T08:47:52.469Z,989.60
2019-01-09T08:48:52.460Z,989.61
2019-01-09T08:49:52.449Z,989.61
2019-01-09T08:50:52.439Z,989.63
2019-01-09T08:51:52.431Z,989.59
2019-01-09T08:52:52.416Z,989.58
2019-01-09T08:53:52.408Z,989.60
2019-01-09T08:54:52.396Z,989.64
2019-01-09T08:55:52.386Z,989.64
2019-01-09T08:56:52.374Z,989.66
2019-01-09T08:57:52.368Z,989.66
2019-01-09T08:58:52.354Z,989.68
2019-01-09T08:59:52.345Z,989.66
2019-01-09T09:00:52.333Z,989.65
2019-01-09T09:01:52.324Z,989.66
2019-01-09T09:02:52.315Z,989.69
2019-01-09T09:03:52.303Z,989.73
2019-01-09T09:04:52.290Z,989.72
2019-01-09T09:05:52.287Z,989.74
2019-01-09T09:06:52.272Z,989.69
2019-01-09T09:07:52.257Z,989.69
2019-01-09T09:08:52.249Z,989.74
2019-01-09T09:09:52.237Z,989.70
2019-01-09T09:10:52.230Z,989.71
2019-01-09T09:11:52.219Z,989.72
2019-01-09T09:12:52.207Z,989.69
2019-01-09T09:13:52.195Z,989.75
2019-01-09T09:14:52.189Z,989.74
2019-01-09T09:15:52.173Z,989.75
2019-01-09T09:16:52.163Z,989.81
2019-01-09T09:17:52.154Z,989.77
2019-01-09T09:18:52.143Z,989.78
2019-01-09T09:19:52.132Z,989.84
2019-01-09T09:20:52.124Z,989.80
2019-01-09T09:21:52.111Z,989.76
2019-01-09T09:22:52.103Z,989.77
2019-01-09T09:23:52.089Z,989.77
2019-01-09T09:24:52.081Z,989.83
2019-01-09T09:25:52.070Z,989.84
2019-01-09T09:26:52.060Z,989.83
2019-01-09T09:27:52.046Z,989.84
2019-01-09T09:28:52.038Z,989.81
2019-01-09T09:29:52.034Z,989.82
2019-01-09T09:30:52.014Z,989.87
2019-01-09T09:31:52.007Z,989.89
2019-01-09T09:32:51.998Z,989.86
2019-01-09T09:33:51.989Z,989.91
2019-01-09T09:34:51.972Z,989.96
2019-01-09T09:35:51.961Z,989.91
2019-01-09T09:36:51.951Z,989.94
2019-01-09T09:37:51.941Z,989.95
2019-01-09T09:38:51.946Z,989.93
2019-01-09T09:39:51.931Z,989.96
2019-01-09T09:40:51.907Z,989.97
2019-01-09T09:41:51.899Z,989.94
2019-01-09T09:42:51.893Z,989.95
2019-01-09T09:43:51.879Z,989.94
2019-01-09T09:44:51.870Z,989.96
2019-01-09T09:45:51.858Z,989.98
2019-01-09T09:46:51.846Z,990.02
2019-01-09T09:47:51.842Z,990.04
2019-01-09T09:48:51.824Z,990.08
2019-01-09T09:49:51.816Z,990.13
2019-01-09T09:50:51.804Z,990.10
2019-01-09T09:51:51.795Z,990.08
2019-01-09T09:52:51.784Z,990.10
2019-01-09T09:53:51.772Z,990.13
2019-01-09T09:54:51.763Z,990.15
2019-01-09T09:55:51.753Z,990.12
2019-01-09T09:56:51.742Z,990.17
2019-01-09T09:57:51.736Z,990.20
2019-01-09T09:58:51.724Z,990.14
2019-01-09T09:59:51.707Z,990.20
2019-01-09T10:00:51.697Z,990.25
2019-01-09T10:01:51.696Z,990.26
2019-01-09T10:02:51.678Z,990.27
2019-01-09T10:03:51.667Z,990.36
2019-01-09T10:04:51.657Z,990.30
2019-01-09T10:05:51.645Z,990.30
2019-01-09T10:06:51.636Z,990.32
2019-01-09T10:07:51.625Z,990.32
2019-01-09T10:08:51.613Z,990.36
2019-01-09T10:09:51.600Z,990.31
2019-01-09T10:10:51.596Z,990.42
2019-01-09T10:11:51.581Z,990.42
2019-01-09T10:12:51.572Z,990.39
2019-01-09T10:13:51.562Z,990.37
2019-01-09T10:14:51.556Z,990.40
2019-01-09T10:15:51.542Z,990.42
2019-01-09T10:16:51.662Z,990.49
2019-01-09T10:17:51.524Z,990.46
2019-01-09T10:18:51.509Z,990.57
2019-01-09T10:19:51.502Z,990.49
2019-01-09T10:20:51.488Z,990.50
2019-01-09T10:21:51.475Z,990.53
2019-01-09T10:22:51.505Z,990.47
2019-01-09T10:23:51.454Z,990.50
2019-01-09T10:24:51.453Z,990.47
2019-01-09T10:25:51.438Z,990.50
2019-01-09T10:26:51.425Z,990.52
2019-01-09T10:27:51.411Z,990.49
2019-01-09T10:28:51.408Z,990.54
2019-01-09T10:29:51.399Z,990.54
2019-01-09T10:30:51.383Z,990.50
2019-01-09T10:31:51.371Z,990.51
2019-01-09T10:32:51.358Z,990.56
2019-01-09T10:33:51.351Z,990.52
2019-01-09T10:34:51.341Z,990.48
2019-01-09T10:35:51.329Z,990.49
2019-01-09T10:36:51.318Z,990.49
2019-01-09T10:37:51.307Z,990.50
2019-01-09T10:38:51.306Z,990.52
2019-01-09T10:39:51.289Z,990.46
2019-01-09T10:40:51.279Z,990.47
2019-01-09T10:41:51.267Z,990.50
2019-01-09T10:42:51.256Z,990.55
2019-01-09T10:43:51.246Z,990.51
2019-01-09T10:44:51.234Z,990.46
2019-01-09T10:45:51.223Z,990.41
2019-01-09T10:46:51.213Z,990.42
2019-01-09T10:47:51.204Z,990.48
2019-01-09T10:48:51.194Z,990.56
2019-01-09T10:49:51.183Z,990.54
2019-01-09T10:50:51.168Z,990.58
2019-01-09T10:51:51.160Z,990.50
2019-01-09T10:52:51.152Z,990.57
2019-01-09T10:53:51.146Z,990.54
2019-01-09T10:54:51.130Z,990.57
2019-01-09T10:55:51.118Z,990.59
2019-01-09T10:56:51.111Z,990.53
2019-01-09T10:57:51.098Z,990.58
2019-01-09T10:58:51.086Z,990.53
2019-01-09T10:59:51.076Z,990.55
2019-01-09T11:00:51.065Z,990.56
2019-01-09T11:01:51.054Z,990.55
2019-01-09T11:02:51.045Z,990.56
2019-01-09T11:03:51.035Z,990.52
2019-01-09T11:04:51.026Z,990.50
2019-01-09T11:05:51.014Z,990.48
2019-01-09T11:06:51.006Z,990.49
2019-01-09T11:07:50.990Z,990.49
2019-01-09T11:08:50.981Z,990.50
2019-01-09T11:09:50.969Z,990.47
2019-01-09T11:10:50.958Z,990.39
2019-01-09T11:11:50.949Z,990.50
2019-01-09T11:12:50.937Z,990.44
2019-01-09T11:13:50.929Z,990.42
2019-01-09T11:14:50.915Z,990.43
2019-01-09T11:15:50.910Z,990.39
2019-01-09T11:16:50.898Z,990.44
2019-01-09T11:17:50.888Z,990.41
2019-01-09T11:18:50.874Z,990.30
2019-01-09T11:19:50.867Z,990.27
2019-01-09T11:20:50.859Z,990.36
2019-01-09T11:21:50.851Z,990.34
2019-01-09T11:22:50.833Z,990.33
2019-01-09T11:23:50.819Z,990.30
2019-01-09T11:24:50.814Z,990.27
2019-01-09T11:25:50.808Z,990.33
2019-01-09T11:26:50.791Z,990.31
2019-01-09T11:27:50.847Z,990.31
2019-01-09T11:28:50.772Z,990.27
2019-01-09T11:29:50.759Z,990.27
2019-01-09T11:30:50.750Z,990.26
2019-01-09T11:31:50.739Z,990.26
2019-01-09T11:32:50.727Z,990.28
2019-01-09T11:33:50.719Z,990.30
2019-01-09T11:34:50.767Z,990.29
2019-01-09T11:35:50.697Z,990.36
2019-01-09T11:36:50.687Z,990.40
2019-01-09T11:37:52.910Z,990.39
2019-01-09T11:38:55.678Z,990.29
2019-01-09T11:39:50.653Z,990.38
2019-01-09T11:40:50.643Z,990.36
2019-01-09T11:41:50.634Z,990.36
2019-01-09T11:42:50.624Z,990.38
2019-01-09T11:43:50.612Z,990.34
2019-01-09T11:44:50.602Z,990.34
2019-01-09T11:45:50.592Z,990.34
2019-01-09T11:46:50.579Z,990.37
2019-01-09T11:47:50.568Z,990.40
2019-01-09T11:48:50.570Z,990.32
2019-01-09T11:49:50.548Z,990.43
2019-01-09T11:50:50.537Z,990.43
2019-01-09T11:51:50.525Z,990.41
2019-01-09T11:52:50.520Z,990.41
2019-01-09T11:53:50.508Z,990.40
2019-01-09T11:54:50.494Z,990.58
2019-01-09T11:55:50.485Z,990.44
2019-01-09T11:56:50.474Z,990.45
2019-01-09T11:57:50.464Z,990.41
2019-01-09T11:58:50.456Z,990.41
2019-01-09T11:59:50.443Z,990.41
2019-01-09T12:00:50.432Z,990.40
2019-01-09T12:01:50.421Z,990.40
2019-01-09T12:02:50.416Z,990.43
2019-01-09T12:03:50.400Z,990.40
2019-01-09T12:04:50.388Z,990.38
2019-01-09T12:05:50.380Z,990.42
2019-01-09T12:06:50.370Z,990.41
2019-01-09T12:07:50.358Z,990.38
2019-01-09T12:08:50.350Z,990.49
2019-01-09T12:09:50.339Z,990.39
2019-01-09T12:10:50.331Z,990.41
2019-01-09T12:11:50.318Z,990.53
2019-01-09T12:12:50.306Z,990.45
2019-01-09T12:13:50.296Z,990.44
2019-01-09T12:14:50.284Z,990.43
2019-01-09T12:15:50.275Z,990.43
2019-01-09T12:16:50.268Z,990.43
2019-01-09T12:17:50.254Z,990.44
2019-01-09T12:18:50.236Z,990.45
2019-01-09T12:19:50.231Z,990.46
2019-01-09T12:20:50.222Z,990.52
2019-01-09T12:21:50.221Z,990.49
2019-01-09T12:22:50.199Z,990.49
2019-01-09T12:23:50.188Z,990.48
2019-01-09T12:24:50.177Z,990.45
2019-01-09T12:25:50.169Z,990.43
2019-01-09T12:26:50.161Z,990.46
2019-01-09T12:27:50.146Z,990.40
2019-01-09T12:28:53.558Z,990.44